sensor_id;sensor_type;location;lat;lon;timestamp;P1;durP1;ratioP1;P2;durP2;ratioP2
50367;SDS011;36281;34.132;-118.018;2022-07-06T00:00:53;6.68;;;3.90;;
50367;SDS011;36281;34.132;-118.018;2022-07-06T00:03:22;5.75;;;3.58;;
50367;SDS011;36281;34.132;-118.018;2022-07-06T00:05:51;6.60;;;3.65;;
50367;SDS011;36281;34.132;-118.018;2022-07-06T00:08:20;5.90;;;3.85;;
50367;SDS011;36281;34.132;-118.018;2022-07-06T00:10:50;5.28;;;3.30;;
50367;SDS011;36281;34.132;-118.018;2022-07-06T00:13:19;5.88;;;3.75;;
50367;SDS011;36281;34.132;-118.018;2022-07-06T00:15:48;6.13;;;3.78;;
50367;SDS011;36281;34.132;-118.018;2022-07-06T00:18:18;6.80;;;3.75;;
50367;SDS011;36281;34.132;-118.018;2022-07-06T00:20:48;8.57;;;3.65;;
50367;SDS011;36281;34.132;-118.018;2022-07-06T00:23:17;6.40;;;3.30;;
50367;SDS011;36281;34.132;-118.018;2022-07-06T00:25:46;5.63;;;3.30;;
50367;SDS011;36281;34.132;-118.018;2022-07-06T00:28:15;6.53;;;3.40;;
50367;SDS011;36281;34.132;-118.018;2022-07-06T00:30:45;4.97;;;3.03;;
50367;SDS011;36281;34.132;-118.018;2022-07-06T00:33:14;5.43;;;3.40;;
50367;SDS011;36281;34.132;-118.018;2022-07-06T00:35:45;5.03;;;3.58;;
50367;SDS011;36281;34.132;-118.018;2022-07-06T00:38:14;6.30;;;3.63;;
50367;SDS011;36281;34.132;-118.018;2022-07-06T00:40:43;6.20;;;3.35;;
50367;SDS011;36281;34.132;-118.018;2022-07-06T00:43:12;6.88;;;3.47;;
50367;SDS011;36281;34.132;-118.018;2022-07-06T00:45:41;6.85;;;3.13;;
50367;SDS011;36281;34.132;-118.018;2022-07-06T00:48:11;6.35;;;3.40;;
50367;SDS011;36281;34.132;-118.018;2022-07-06T00:50:40;6.88;;;3.42;;
50367;SDS011;36281;34.132;-118.018;2022-07-06T00:53:11;5.13;;;3.40;;
50367;SDS011;36281;34.132;-118.018;2022-07-06T00:55:41;6.05;;;3.35;;
50367;SDS011;36281;34.132;-118.018;2022-07-06T00:58:11;7.90;;;3.90;;
50367;SDS011;36281;34.132;-118.018;2022-07-06T01:00:40;6.13;;;3.72;;
50367;SDS011;36281;34.132;-118.018;2022-07-06T01:03:12;5.82;;;3.53;;
50367;SDS011;36281;34.132;-118.018;2022-07-06T01:05:41;7.80;;;3.55;;
50367;SDS011;36281;34.132;-118.018;2022-07-06T01:08:13;6.25;;;3.90;;
50367;SDS011;36281;34.132;-118.018;2022-07-06T01:10:43;9.13;;;3.83;;
50367;SDS011;36281;34.132;-118.018;2022-07-06T01:13:12;8.18;;;4.07;;
50367;SDS011;36281;34.132;-118.018;2022-07-06T01:15:41;6.43;;;3.80;;
50367;SDS011;36281;34.132;-118.018;2022-07-06T01:18:10;6.88;;;3.92;;
50367;SDS011;36281;34.132;-118.018;2022-07-06T01:20:41;6.32;;;4.20;;
50367;SDS011;36281;34.132;-118.018;2022-07-06T01:23:11;6.05;;;4.05;;
50367;SDS011;36281;34.132;-118.018;2022-07-06T01:25:43;6.75;;;4.50;;
50367;SDS011;36281;34.132;-118.018;2022-07-06T01:28:12;7.20;;;4.60;;
50367;SDS011;36281;34.132;-118.018;2022-07-06T01:30:41;6.57;;;4.03;;
50367;SDS011;36281;34.132;-118.018;2022-07-06T01:33:10;7.13;;;4.45;;
50367;SDS011;36281;34.132;-118.018;2022-07-06T01:35:39;6.65;;;4.10;;
50367;SDS011;36281;34.132;-118.018;2022-07-06T01:38:10;9.60;;;4.40;;
50367;SDS011;36281;34.132;-118.018;2022-07-06T01:40:39;11.48;;;4.60;;
50367;SDS011;36281;34.132;-118.018;2022-07-06T01:43:08;12.77;;;4.55;;
50367;SDS011;36281;34.132;-118.018;2022-07-06T01:45:37;7.60;;;4.03;;
50367;SDS011;36281;34.132;-118.018;2022-07-06T01:48:06;10.93;;;4.40;;
50367;SDS011;36281;34.132;-118.018;2022-07-06T01:50:36;7.13;;;4.30;;
50367;SDS011;36281;34.132;-118.018;2022-07-06T01:53:07;5.82;;;4.25;;
50367;SDS011;36281;34.132;-118.018;2022-07-06T01:55:36;6.93;;;4.15;;
50367;SDS011;36281;34.132;-118.018;2022-07-06T01:58:05;7.30;;;4.10;;
50367;SDS011;36281;34.132;-118.018;2022-07-06T02:00:34;7.15;;;4.28;;
50367;SDS011;36281;34.132;-118.018;2022-07-06T02:03:03;8.57;;;4.45;;
50367;SDS011;36281;34.132;-118.018;2022-07-06T02:05:32;7.45;;;4.40;;
50367;SDS011;36281;34.132;-118.018;2022-07-06T02:08:01;7.32;;;4.30;;
50367;SDS011;36281;34.132;-118.018;2022-07-06T02:10:31;8.18;;;4.63;;
50367;SDS011;36281;34.132;-118.018;2022-07-06T02:13:00;7.95;;;5.05;;
50367;SDS011;36281;34.132;-118.018;2022-07-06T02:15:29;12.95;;;5.13;;
50367;SDS011;36281;34.132;-118.018;2022-07-06T02:17:58;7.45;;;4.97;;
50367;SDS011;36281;34.132;-118.018;2022-07-06T02:20:27;10.45;;;5.57;;
50367;SDS011;36281;34.132;-118.018;2022-07-06T02:22:56;11.30;;;6.20;;
50367;SDS011;36281;34.132;-118.018;2022-07-06T02:25:25;6.00;;;5.40;;
50367;SDS011;36281;34.132;-118.018;2022-07-06T02:27:56;10.48;;;6.18;;
50367;SDS011;36281;34.132;-118.018;2022-07-06T02:30:25;11.23;;;6.18;;
50367;SDS011;36281;34.132;-118.018;2022-07-06T02:32:54;8.43;;;6.63;;
50367;SDS011;36281;34.132;-118.018;2022-07-06T02:35:23;9.15;;;6.35;;
50367;SDS011;36281;34.132;-118.018;2022-07-06T02:37:52;9.88;;;6.10;;
50367;SDS011;36281;34.132;-118.018;2022-07-06T02:40:21;8.20;;;6.00;;
50367;SDS011;36281;34.132;-118.018;2022-07-06T02:42:50;7.28;;;5.95;;
50367;SDS011;36281;34.132;-118.018;2022-07-06T02:45:21;10.07;;;6.88;;
50367;SDS011;36281;34.132;-118.018;2022-07-06T02:47:50;9.18;;;6.28;;
50367;SDS011;36281;34.132;-118.018;2022-07-06T02:50:21;10.02;;;6.70;;
50367;SDS011;36281;34.132;-118.018;2022-07-06T02:52:50;11.50;;;6.97;;
50367;SDS011;36281;34.132;-118.018;2022-07-06T02:55:19;13.32;;;7.25;;
50367;SDS011;36281;34.132;-118.018;2022-07-06T02:57:48;9.73;;;6.40;;
50367;SDS011;36281;34.132;-118.018;2022-07-06T03:00:17;13.27;;;6.93;;
50367;SDS011;36281;34.132;-118.018;2022-07-06T03:02:47;9.80;;;6.35;;
50367;SDS011;36281;34.132;-118.018;2022-07-06T03:05:16;11.73;;;6.70;;
50367;SDS011;36281;34.132;-118.018;2022-07-06T03:07:45;9.35;;;6.50;;
50367;SDS011;36281;34.132;-118.018;2022-07-06T03:10:14;8.05;;;5.30;;
50367;SDS011;36281;34.132;-118.018;2022-07-06T03:12:44;8.68;;;5.40;;
50367;SDS011;36281;34.132;-118.018;2022-07-06T03:15:13;7.65;;;5.30;;
50367;SDS011;36281;34.132;-118.018;2022-07-06T03:17:42;7.18;;;5.13;;
50367;SDS011;36281;34.132;-118.018;2022-07-06T03:20:13;9.02;;;5.05;;
50367;SDS011;36281;34.132;-118.018;2022-07-06T03:22:42;8.70;;;5.15;;
50367;SDS011;36281;34.132;-118.018;2022-07-06T03:25:11;8.60;;;4.57;;
50367;SDS011;36281;34.132;-118.018;2022-07-06T03:27:40;7.53;;;4.32;;
50367;SDS011;36281;34.132;-118.018;2022-07-06T03:30:10;9.80;;;4.75;;
50367;SDS011;36281;34.132;-118.018;2022-07-06T03:32:40;8.73;;;4.22;;
50367;SDS011;36281;34.132;-118.018;2022-07-06T03:35:09;6.30;;;3.97;;
50367;SDS011;36281;34.132;-118.018;2022-07-06T03:37:40;6.93;;;3.20;;
50367;SDS011;36281;34.132;-118.018;2022-07-06T03:40:10;5.93;;;3.70;;
50367;SDS011;36281;34.132;-118.018;2022-07-06T03:42:40;6.50;;;3.78;;
50367;SDS011;36281;34.132;-118.018;2022-07-06T03:45:09;4.70;;;2.97;;
50367;SDS011;36281;34.132;-118.018;2022-07-06T03:47:38;4.80;;;3.17;;
50367;SDS011;36281;34.132;-118.018;2022-07-06T03:50:08;5.20;;;3.28;;
50367;SDS011;36281;34.132;-118.018;2022-07-06T03:52:37;4.68;;;2.88;;
50367;SDS011;36281;34.132;-118.018;2022-07-06T03:55:11;4.47;;;2.95;;
50367;SDS011;36281;34.132;-118.018;2022-07-06T03:57:40;5.45;;;2.80;;
50367;SDS011;36281;34.132;-118.018;2022-07-06T04:00:09;3.70;;;2.67;;
50367;SDS011;36281;34.132;-118.018;2022-07-06T04:02:39;5.22;;;2.35;;
50367;SDS011;36281;34.132;-118.018;2022-07-06T04:05:08;3.10;;;2.30;;
50367;SDS011;36281;34.132;-118.018;2022-07-06T04:07:37;4.50;;;2.15;;
50367;SDS011;36281;34.132;-118.018;2022-07-06T04:10:07;5.55;;;2.60;;
50367;SDS011;36281;34.132;-118.018;2022-07-06T04:12:41;4.55;;;2.33;;
50367;SDS011;36281;34.132;-118.018;2022-07-06T04:15:11;4.72;;;2.10;;
50367;SDS011;36281;34.132;-118.018;2022-07-06T04:17:40;6.07;;;2.30;;
50367;SDS011;36281;34.132;-118.018;2022-07-06T04:20:21;2.90;;;2.13;;
50367;SDS011;36281;34.132;-118.018;2022-07-06T04:22:51;2.70;;;2.45;;
50367;SDS011;36281;34.132;-118.018;2022-07-06T04:25:20;3.72;;;2.35;;
50367;SDS011;36281;34.132;-118.018;2022-07-06T04:27:51;2.17;;;1.85;;
50367;SDS011;36281;34.132;-118.018;2022-07-06T04:30:20;2.40;;;2.00;;
50367;SDS011;36281;34.132;-118.018;2022-07-06T04:32:50;3.88;;;2.25;;
50367;SDS011;36281;34.132;-118.018;2022-07-06T04:35:19;4.22;;;2.28;;
50367;SDS011;36281;34.132;-118.018;2022-07-06T04:37:48;5.18;;;2.30;;
50367;SDS011;36281;34.132;-118.018;2022-07-06T04:40:17;3.78;;;2.33;;
50367;SDS011;36281;34.132;-118.018;2022-07-06T04:42:46;2.88;;;2.25;;
50367;SDS011;36281;34.132;-118.018;2022-07-06T04:45:17;4.00;;;2.53;;
50367;SDS011;36281;34.132;-118.018;2022-07-06T04:47:46;3.60;;;2.30;;
50367;SDS011;36281;34.132;-118.018;2022-07-06T04:50:15;8.43;;;2.85;;
50367;SDS011;36281;34.132;-118.018;2022-07-06T04:52:44;4.13;;;2.20;;
50367;SDS011;36281;34.132;-118.018;2022-07-06T04:55:13;4.43;;;2.55;;
50367;SDS011;36281;34.132;-118.018;2022-07-06T04:57:42;3.72;;;2.47;;
50367;SDS011;36281;34.132;-118.018;2022-07-06T05:00:11;6.03;;;2.40;;
50367;SDS011;36281;34.132;-118.018;2022-07-06T05:02:43;4.35;;;2.33;;
50367;SDS011;36281;34.132;-118.018;2022-07-06T05:05:12;4.97;;;2.42;;
50367;SDS011;36281;34.132;-118.018;2022-07-06T05:07:41;5.88;;;2.40;;
50367;SDS011;36281;34.132;-118.018;2022-07-06T05:10:10;3.28;;;2.20;;
50367;SDS011;36281;34.132;-118.018;2022-07-06T05:12:39;4.65;;;2.65;;
50367;SDS011;36281;34.132;-118.018;2022-07-06T05:15:09;3.55;;;2.40;;
50367;SDS011;36281;34.132;-118.018;2022-07-06T05:17:38;3.42;;;2.15;;
50367;SDS011;36281;34.132;-118.018;2022-07-06T05:20:09;5.45;;;2.60;;
50367;SDS011;36281;34.132;-118.018;2022-07-06T05:22:38;4.28;;;2.75;;
50367;SDS011;36281;34.132;-118.018;2022-07-06T05:25:12;4.40;;;2.65;;
50367;SDS011;36281;34.132;-118.018;2022-07-06T05:27:41;6.75;;;3.05;;
50367;SDS011;36281;34.132;-118.018;2022-07-06T05:30:10;6.13;;;2.90;;
50367;SDS011;36281;34.132;-118.018;2022-07-06T05:32:40;6.03;;;3.15;;
50367;SDS011;36281;34.132;-118.018;2022-07-06T05:35:10;5.18;;;3.13;;
50367;SDS011;36281;34.132;-118.018;2022-07-06T05:37:59;6.30;;;3.25;;
50367;SDS011;36281;34.132;-118.018;2022-07-06T05:40:28;5.50;;;3.33;;
50367;SDS011;36281;34.132;-118.018;2022-07-06T05:42:57;5.68;;;3.10;;
50367;SDS011;36281;34.132;-118.018;2022-07-06T05:45:26;5.03;;;2.88;;
50367;SDS011;36281;34.132;-118.018;2022-07-06T05:47:55;5.38;;;3.08;;
50367;SDS011;36281;34.132;-118.018;2022-07-06T05:50:44;5.18;;;3.08;;
50367;SDS011;36281;34.132;-118.018;2022-07-06T05:53:13;5.13;;;3.05;;
50367;SDS011;36281;34.132;-118.018;2022-07-06T05:55:46;6.38;;;3.22;;
50367;SDS011;36281;34.132;-118.018;2022-07-06T05:58:15;6.13;;;3.10;;
50367;SDS011;36281;34.132;-118.018;2022-07-06T06:00:44;5.07;;;2.83;;
50367;SDS011;36281;34.132;-118.018;2022-07-06T06:03:14;6.70;;;3.20;;
50367;SDS011;36281;34.132;-118.018;2022-07-06T06:05:45;4.95;;;2.90;;
50367;SDS011;36281;34.132;-118.018;2022-07-06T06:08:14;5.30;;;2.90;;
50367;SDS011;36281;34.132;-118.018;2022-07-06T06:10:43;4.32;;;2.92;;
50367;SDS011;36281;34.132;-118.018;2022-07-06T06:13:12;4.90;;;3.17;;
50367;SDS011;36281;34.132;-118.018;2022-07-06T06:15:41;6.60;;;2.70;;
50367;SDS011;36281;34.132;-118.018;2022-07-06T06:18:10;6.20;;;2.90;;
50367;SDS011;36281;34.132;-118.018;2022-07-06T06:20:40;4.70;;;2.70;;
50367;SDS011;36281;34.132;-118.018;2022-07-06T06:23:10;6.40;;;3.03;;
50367;SDS011;36281;34.132;-118.018;2022-07-06T06:25:39;4.50;;;2.65;;
50367;SDS011;36281;34.132;-118.018;2022-07-06T06:28:08;6.53;;;2.92;;
50367;SDS011;36281;34.132;-118.018;2022-07-06T06:30:38;7.50;;;3.13;;
50367;SDS011;36281;34.132;-118.018;2022-07-06T06:33:08;6.90;;;2.95;;
50367;SDS011;36281;34.132;-118.018;2022-07-06T06:35:41;6.60;;;3.40;;
50367;SDS011;36281;34.132;-118.018;2022-07-06T06:38:13;5.70;;;3.20;;
50367;SDS011;36281;34.132;-118.018;2022-07-06T06:40:42;8.38;;;3.40;;
50367;SDS011;36281;34.132;-118.018;2022-07-06T06:43:11;7.47;;;3.80;;
50367;SDS011;36281;34.132;-118.018;2022-07-06T06:45:41;6.75;;;3.90;;
50367;SDS011;36281;34.132;-118.018;2022-07-06T06:48:10;7.80;;;3.88;;
50367;SDS011;36281;34.132;-118.018;2022-07-06T06:50:47;6.80;;;3.65;;
50367;SDS011;36281;34.132;-118.018;2022-07-06T06:53:18;6.35;;;3.42;;
50367;SDS011;36281;34.132;-118.018;2022-07-06T06:55:47;7.68;;;4.00;;
50367;SDS011;36281;34.132;-118.018;2022-07-06T06:58:16;10.02;;;4.05;;
50367;SDS011;36281;34.132;-118.018;2022-07-06T07:00:45;7.05;;;3.63;;
50367;SDS011;36281;34.132;-118.018;2022-07-06T07:03:15;6.43;;;3.65;;
50367;SDS011;36281;34.132;-118.018;2022-07-06T07:05:44;6.22;;;3.75;;
50367;SDS011;36281;34.132;-118.018;2022-07-06T07:08:14;7.47;;;3.90;;
50367;SDS011;36281;34.132;-118.018;2022-07-06T07:10:45;6.82;;;4.18;;
50367;SDS011;36281;34.132;-118.018;2022-07-06T07:13:13;7.03;;;3.72;;
50367;SDS011;36281;34.132;-118.018;2022-07-06T07:15:43;8.73;;;4.15;;
50367;SDS011;36281;34.132;-118.018;2022-07-06T07:18:12;6.38;;;3.78;;
50367;SDS011;36281;34.132;-118.018;2022-07-06T07:20:42;7.00;;;4.20;;
50367;SDS011;36281;34.132;-118.018;2022-07-06T07:23:11;5.80;;;3.53;;
50367;SDS011;36281;34.132;-118.018;2022-07-06T07:25:40;6.20;;;3.80;;
50367;SDS011;36281;34.132;-118.018;2022-07-06T07:28:11;6.85;;;4.20;;
50367;SDS011;36281;34.132;-118.018;2022-07-06T07:30:40;7.90;;;3.85;;
50367;SDS011;36281;34.132;-118.018;2022-07-06T07:33:09;7.25;;;3.92;;
50367;SDS011;36281;34.132;-118.018;2022-07-06T07:35:39;8.65;;;3.80;;
50367;SDS011;36281;34.132;-118.018;2022-07-06T07:38:08;7.35;;;3.72;;
50367;SDS011;36281;34.132;-118.018;2022-07-06T07:40:37;6.53;;;3.55;;
50367;SDS011;36281;34.132;-118.018;2022-07-06T07:43:06;6.30;;;3.72;;
50367;SDS011;36281;34.132;-118.018;2022-07-06T07:45:37;6.35;;;3.55;;
50367;SDS011;36281;34.132;-118.018;2022-07-06T07:48:06;6.88;;;3.60;;
50367;SDS011;36281;34.132;-118.018;2022-07-06T07:50:35;5.97;;;3.78;;
50367;SDS011;36281;34.132;-118.018;2022-07-06T07:53:04;8.52;;;4.28;;
50367;SDS011;36281;34.132;-118.018;2022-07-06T07:55:33;7.20;;;3.70;;
50367;SDS011;36281;34.132;-118.018;2022-07-06T07:58:08;4.22;;;3.08;;
50367;SDS011;36281;34.132;-118.018;2022-07-06T08:00:39;5.20;;;3.60;;
50367;SDS011;36281;34.132;-118.018;2022-07-06T08:03:08;5.20;;;3.83;;
50367;SDS011;36281;34.132;-118.018;2022-07-06T08:05:37;5.80;;;3.35;;
50367;SDS011;36281;34.132;-118.018;2022-07-06T08:08:06;6.07;;;3.40;;
50367;SDS011;36281;34.132;-118.018;2022-07-06T08:10:35;6.20;;;3.13;;
50367;SDS011;36281;34.132;-118.018;2022-07-06T08:13:24;5.43;;;3.55;;
50367;SDS011;36281;34.132;-118.018;2022-07-06T08:15:54;5.68;;;3.30;;
50367;SDS011;36281;34.132;-118.018;2022-07-06T08:18:23;4.22;;;3.20;;
50367;SDS011;36281;34.132;-118.018;2022-07-06T08:20:53;7.75;;;3.75;;
50367;SDS011;36281;34.132;-118.018;2022-07-06T08:23:44;6.20;;;3.22;;
50367;SDS011;36281;34.132;-118.018;2022-07-06T08:26:13;6.70;;;3.38;;
50367;SDS011;36281;34.132;-118.018;2022-07-06T08:28:43;5.95;;;3.80;;
50367;SDS011;36281;34.132;-118.018;2022-07-06T08:31:14;6.38;;;3.50;;
50367;SDS011;36281;34.132;-118.018;2022-07-06T08:34:03;6.35;;;3.15;;
50367;SDS011;36281;34.132;-118.018;2022-07-06T08:36:32;4.60;;;3.40;;
50367;SDS011;36281;34.132;-118.018;2022-07-06T08:39:01;5.40;;;3.30;;
50367;SDS011;36281;34.132;-118.018;2022-07-06T08:41:31;4.35;;;3.10;;
50367;SDS011;36281;34.132;-118.018;2022-07-06T08:44:00;4.55;;;3.03;;
50367;SDS011;36281;34.132;-118.018;2022-07-06T08:46:31;6.70;;;3.40;;
50367;SDS011;36281;34.132;-118.018;2022-07-06T08:49:01;5.13;;;3.22;;
50367;SDS011;36281;34.132;-118.018;2022-07-06T08:51:30;6.70;;;3.50;;
50367;SDS011;36281;34.132;-118.018;2022-07-06T08:53:59;5.43;;;3.45;;
50367;SDS011;36281;34.132;-118.018;2022-07-06T08:56:30;6.22;;;3.55;;
50367;SDS011;36281;34.132;-118.018;2022-07-06T08:59:00;6.03;;;3.40;;
50367;SDS011;36281;34.132;-118.018;2022-07-06T09:01:29;6.07;;;3.25;;
50367;SDS011;36281;34.132;-118.018;2022-07-06T09:04:00;8.70;;;3.42;;
50367;SDS011;36281;34.132;-118.018;2022-07-06T09:06:33;6.78;;;3.15;;
50367;SDS011;36281;34.132;-118.018;2022-07-06T09:09:04;5.28;;;3.58;;
50367;SDS011;36281;34.132;-118.018;2022-07-06T09:11:35;6.57;;;3.33;;
50367;SDS011;36281;34.132;-118.018;2022-07-06T09:14:05;6.18;;;3.20;;
50367;SDS011;36281;34.132;-118.018;2022-07-06T09:16:36;6.07;;;3.40;;
50367;SDS011;36281;34.132;-118.018;2022-07-06T09:19:06;4.63;;;3.13;;
50367;SDS011;36281;34.132;-118.018;2022-07-06T09:21:37;5.30;;;3.30;;
50367;SDS011;36281;34.132;-118.018;2022-07-06T09:24:07;4.25;;;3.00;;
50367;SDS011;36281;34.132;-118.018;2022-07-06T09:26:38;8.20;;;3.60;;
50367;SDS011;36281;34.132;-118.018;2022-07-06T09:29:08;5.50;;;3.10;;
50367;SDS011;36281;34.132;-118.018;2022-07-06T09:31:40;4.95;;;3.22;;
50367;SDS011;36281;34.132;-118.018;2022-07-06T09:34:09;8.40;;;3.75;;
50367;SDS011;36281;34.132;-118.018;2022-07-06T09:36:42;7.38;;;3.50;;
50367;SDS011;36281;34.132;-118.018;2022-07-06T09:39:15;7.32;;;3.53;;
50367;SDS011;36281;34.132;-118.018;2022-07-06T09:41:54;7.53;;;3.25;;
50367;SDS011;36281;34.132;-118.018;2022-07-06T09:44:24;9.50;;;3.58;;
50367;SDS011;36281;34.132;-118.018;2022-07-06T09:46:56;5.70;;;3.17;;
50367;SDS011;36281;34.132;-118.018;2022-07-06T09:49:27;7.00;;;3.85;;
50367;SDS011;36281;34.132;-118.018;2022-07-06T09:51:57;7.15;;;3.30;;
50367;SDS011;36281;34.132;-118.018;2022-07-06T09:54:27;5.28;;;3.15;;
50367;SDS011;36281;34.132;-118.018;2022-07-06T09:56:56;5.57;;;3.67;;
50367;SDS011;36281;34.132;-118.018;2022-07-06T09:59:32;5.82;;;3.25;;
50367;SDS011;36281;34.132;-118.018;2022-07-06T10:02:05;7.93;;;3.35;;
50367;SDS011;36281;34.132;-118.018;2022-07-06T10:04:36;5.88;;;3.10;;
50367;SDS011;36281;34.132;-118.018;2022-07-06T10:07:05;6.88;;;3.33;;
50367;SDS011;36281;34.132;-118.018;2022-07-06T10:09:35;5.95;;;3.25;;
50367;SDS011;36281;34.132;-118.018;2022-07-06T10:12:06;8.05;;;3.10;;
50367;SDS011;36281;34.132;-118.018;2022-07-06T10:14:38;4.85;;;3.10;;
50367;SDS011;36281;34.132;-118.018;2022-07-06T10:17:18;7.47;;;3.03;;
50367;SDS011;36281;34.132;-118.018;2022-07-06T10:19:50;6.03;;;3.22;;
50367;SDS011;36281;34.132;-118.018;2022-07-06T10:22:19;5.72;;;2.80;;
50367;SDS011;36281;34.132;-118.018;2022-07-06T10:24:49;6.80;;;2.80;;
50367;SDS011;36281;34.132;-118.018;2022-07-06T10:27:18;4.15;;;2.80;;
50367;SDS011;36281;34.132;-118.018;2022-07-06T10:29:47;4.80;;;3.00;;
50367;SDS011;36281;34.132;-118.018;2022-07-06T10:32:19;5.72;;;2.80;;
50367;SDS011;36281;34.132;-118.018;2022-07-06T10:34:49;6.57;;;2.63;;
50367;SDS011;36281;34.132;-118.018;2022-07-06T10:37:22;6.15;;;2.80;;
50367;SDS011;36281;34.132;-118.018;2022-07-06T10:39:52;5.40;;;2.50;;
50367;SDS011;36281;34.132;-118.018;2022-07-06T10:42:43;5.40;;;2.67;;
50367;SDS011;36281;34.132;-118.018;2022-07-06T10:45:20;7.85;;;3.22;;
50367;SDS011;36281;34.132;-118.018;2022-07-06T10:48:22;5.90;;;2.63;;
50367;SDS011;36281;34.132;-118.018;2022-07-06T10:50:53;5.07;;;2.67;;
50367;SDS011;36281;34.132;-118.018;2022-07-06T10:53:23;5.88;;;2.70;;
50367;SDS011;36281;34.132;-118.018;2022-07-06T10:55:53;8.27;;;3.10;;
50367;SDS011;36281;34.132;-118.018;2022-07-06T10:58:46;6.47;;;2.85;;
50367;SDS011;36281;34.132;-118.018;2022-07-06T11:01:18;9.45;;;3.38;;
50367;SDS011;36281;34.132;-118.018;2022-07-06T11:03:50;4.95;;;2.35;;
50367;SDS011;36281;34.132;-118.018;2022-07-06T11:06:35;6.40;;;2.67;;
50367;SDS011;36281;34.132;-118.018;2022-07-06T11:09:07;5.95;;;2.60;;
50367;SDS011;36281;34.132;-118.018;2022-07-06T11:11:38;7.05;;;2.33;;
50367;SDS011;36281;34.132;-118.018;2022-07-06T11:14:09;6.78;;;2.67;;
50367;SDS011;36281;34.132;-118.018;2022-07-06T11:19:31;6.55;;;2.75;;
50367;SDS011;36281;34.132;-118.018;2022-07-06T11:22:04;4.75;;;2.40;;
50367;SDS011;36281;34.132;-118.018;2022-07-06T11:24:35;6.03;;;2.38;;
50367;SDS011;36281;34.132;-118.018;2022-07-06T11:27:05;6.47;;;2.78;;
50367;SDS011;36281;34.132;-118.018;2022-07-06T11:29:34;5.55;;;2.50;;
50367;SDS011;36281;34.132;-118.018;2022-07-06T11:32:07;6.00;;;2.53;;
50367;SDS011;36281;34.132;-118.018;2022-07-06T11:34:40;7.53;;;2.70;;
50367;SDS011;36281;34.132;-118.018;2022-07-06T11:37:10;7.43;;;2.70;;
50367;SDS011;36281;34.132;-118.018;2022-07-06T11:39:41;4.20;;;2.63;;
50367;SDS011;36281;34.132;-118.018;2022-07-06T11:42:10;6.40;;;2.92;;
50367;SDS011;36281;34.132;-118.018;2022-07-06T11:44:40;9.13;;;3.90;;
50367;SDS011;36281;34.132;-118.018;2022-07-06T11:47:10;7.38;;;4.15;;
50367;SDS011;36281;34.132;-118.018;2022-07-06T11:49:48;6.60;;;4.63;;
50367;SDS011;36281;34.132;-118.018;2022-07-06T11:52:18;9.18;;;6.20;;
50367;SDS011;36281;34.132;-118.018;2022-07-06T11:54:47;13.30;;;6.78;;
50367;SDS011;36281;34.132;-118.018;2022-07-06T11:57:16;11.60;;;7.07;;
50367;SDS011;36281;34.132;-118.018;2022-07-06T11:59:45;9.40;;;6.60;;
50367;SDS011;36281;34.132;-118.018;2022-07-06T12:02:19;10.35;;;7.05;;
50367;SDS011;36281;34.132;-118.018;2022-07-06T12:04:49;8.68;;;6.00;;
50367;SDS011;36281;34.132;-118.018;2022-07-06T12:07:19;9.18;;;6.20;;
50367;SDS011;36281;34.132;-118.018;2022-07-06T12:09:48;9.27;;;5.75;;
50367;SDS011;36281;34.132;-118.018;2022-07-06T12:12:17;12.00;;;6.22;;
50367;SDS011;36281;34.132;-118.018;2022-07-06T12:14:46;11.85;;;6.35;;
50367;SDS011;36281;34.132;-118.018;2022-07-06T12:17:15;8.48;;;6.53;;
50367;SDS011;36281;34.132;-118.018;2022-07-06T12:19:44;12.10;;;6.80;;
50367;SDS011;36281;34.132;-118.018;2022-07-06T12:22:25;12.52;;;6.15;;
50367;SDS011;36281;34.132;-118.018;2022-07-06T12:24:54;9.43;;;6.15;;
50367;SDS011;36281;34.132;-118.018;2022-07-06T12:27:28;10.23;;;6.35;;
50367;SDS011;36281;34.132;-118.018;2022-07-06T12:30:09;9.68;;;5.95;;
50367;SDS011;36281;34.132;-118.018;2022-07-06T12:32:46;8.93;;;6.28;;
50367;SDS011;36281;34.132;-118.018;2022-07-06T12:35:35;10.35;;;6.60;;
50367;SDS011;36281;34.132;-118.018;2022-07-06T12:38:06;10.10;;;6.53;;
50367;SDS011;36281;34.132;-118.018;2022-07-06T12:40:35;9.77;;;6.55;;
50367;SDS011;36281;34.132;-118.018;2022-07-06T12:43:05;9.30;;;5.80;;
50367;SDS011;36281;34.132;-118.018;2022-07-06T12:45:34;11.38;;;6.25;;
50367;SDS011;36281;34.132;-118.018;2022-07-06T12:48:04;10.32;;;6.45;;
50367;SDS011;36281;34.132;-118.018;2022-07-06T12:50:34;10.43;;;6.97;;
50367;SDS011;36281;34.132;-118.018;2022-07-06T12:53:06;12.05;;;6.30;;
50367;SDS011;36281;34.132;-118.018;2022-07-06T12:56:07;9.05;;;5.90;;
50367;SDS011;36281;34.132;-118.018;2022-07-06T12:58:37;8.82;;;6.38;;
50367;SDS011;36281;34.132;-118.018;2022-07-06T13:01:06;9.18;;;6.32;;
50367;SDS011;36281;34.132;-118.018;2022-07-06T13:03:38;13.30;;;6.63;;
50367;SDS011;36281;34.132;-118.018;2022-07-06T13:06:07;6.95;;;5.80;;
50367;SDS011;36281;34.132;-118.018;2022-07-06T13:08:38;9.48;;;5.80;;
50367;SDS011;36281;34.132;-118.018;2022-07-06T13:11:07;9.32;;;6.38;;
50367;SDS011;36281;34.132;-118.018;2022-07-06T13:13:42;9.82;;;6.07;;
50367;SDS011;36281;34.132;-118.018;2022-07-06T13:16:12;9.88;;;6.50;;
50367;SDS011;36281;34.132;-118.018;2022-07-06T13:18:41;9.80;;;6.55;;
50367;SDS011;36281;34.132;-118.018;2022-07-06T13:21:10;9.73;;;6.72;;
50367;SDS011;36281;34.132;-118.018;2022-07-06T13:23:41;14.23;;;7.53;;
50367;SDS011;36281;34.132;-118.018;2022-07-06T13:26:09;9.15;;;6.40;;
50367;SDS011;36281;34.132;-118.018;2022-07-06T13:28:39;11.52;;;6.97;;
50367;SDS011;36281;34.132;-118.018;2022-07-06T13:31:08;12.43;;;6.97;;
50367;SDS011;36281;34.132;-118.018;2022-07-06T13:33:38;10.35;;;7.03;;
50367;SDS011;36281;34.132;-118.018;2022-07-06T13:36:07;12.52;;;7.25;;
50367;SDS011;36281;34.132;-118.018;2022-07-06T13:38:36;10.70;;;6.45;;
50367;SDS011;36281;34.132;-118.018;2022-07-06T13:41:07;9.18;;;6.68;;
50367;SDS011;36281;34.132;-118.018;2022-07-06T13:43:36;9.30;;;6.55;;
50367;SDS011;36281;34.132;-118.018;2022-07-06T13:46:06;10.57;;;7.38;;
50367;SDS011;36281;34.132;-118.018;2022-07-06T13:48:35;9.20;;;6.30;;
50367;SDS011;36281;34.132;-118.018;2022-07-06T13:51:04;10.43;;;6.82;;
50367;SDS011;36281;34.132;-118.018;2022-07-06T13:53:34;10.35;;;7.00;;
50367;SDS011;36281;34.132;-118.018;2022-07-06T13:56:04;9.65;;;6.88;;
50367;SDS011;36281;34.132;-118.018;2022-07-06T13:58:35;9.30;;;6.55;;
50367;SDS011;36281;34.132;-118.018;2022-07-06T14:01:04;10.75;;;7.00;;
50367;SDS011;36281;34.132;-118.018;2022-07-06T14:03:34;7.95;;;6.03;;
50367;SDS011;36281;34.132;-118.018;2022-07-06T14:06:05;10.27;;;6.22;;
50367;SDS011;36281;34.132;-118.018;2022-07-06T14:08:35;8.27;;;5.50;;
50367;SDS011;36281;34.132;-118.018;2022-07-06T14:11:05;11.73;;;5.93;;
50367;SDS011;36281;34.132;-118.018;2022-07-06T14:13:37;6.72;;;5.03;;
50367;SDS011;36281;34.132;-118.018;2022-07-06T14:16:06;13.40;;;5.88;;
50367;SDS011;36281;34.132;-118.018;2022-07-06T14:18:36;10.25;;;5.95;;
50367;SDS011;36281;34.132;-118.018;2022-07-06T14:21:06;7.97;;;5.65;;
50367;SDS011;36281;34.132;-118.018;2022-07-06T14:23:35;8.30;;;5.72;;
50367;SDS011;36281;34.132;-118.018;2022-07-06T14:26:04;9.85;;;6.00;;
50367;SDS011;36281;34.132;-118.018;2022-07-06T14:28:35;6.43;;;5.28;;